sensor_id;sensor_type;location;lat;lon;timestamp;pressure;altitude;pressure_sealevel;temperature;humidity
47220;BME280;32961;51.936;4.788;2023-02-14T00:00:52;103444.66;;;4.60;96.55
47220;BME280;32961;51.936;4.788;2023-02-14T00:03:20;103440.19;;;4.59;97.06
47220;BME280;32961;51.936;4.788;2023-02-14T00:05:48;103449.19;;;4.58;96.96
47220;BME280;32961;51.936;4.788;2023-02-14T00:08:17;103451.06;;;4.56;96.59
47220;BME280;32961;51.936;4.788;2023-02-14T00:10:45;103450.19;;;4.54;96.95
47220;BME280;32961;51.936;4.788;2023-02-14T00:13:12;103449.34;;;4.52;97.15
47220;BME280;32961;51.936;4.788;2023-02-14T00:15:40;103446.72;;;4.50;96.78
47220;BME280;32961;51.936;4.788;2023-02-14T00:18:07;103446.75;;;4.49;97.12
47220;BME280;32961;51.936;4.788;2023-02-14T00:20:35;103445.03;;;4.46;97.00
47220;BME280;32961;51.936;4.788;2023-02-14T00:23:02;103441.44;;;4.46;97.58
47220;BME280;32961;51.936;4.788;2023-02-14T00:25:33;103438.84;;;4.43;97.46
47220;BME280;32961;51.936;4.788;2023-02-14T00:28:01;103441.56;;;4.41;97.42
47220;BME280;32961;51.936;4.788;2023-02-14T00:30:29;103440.72;;;4.39;97.44
47220;BME280;32961;51.936;4.788;2023-02-14T00:32:57;103432.72;;;4.36;97.49
47220;BME280;32961;51.936;4.788;2023-02-14T00:35:24;103433.69;;;4.33;97.62
47220;BME280;32961;51.936;4.788;2023-02-14T00:37:52;103431.97;;;4.31;97.29
47220;BME280;32961;51.936;4.788;2023-02-14T00:40:21;103427.59;;;4.27;97.43
47220;BME280;32961;51.936;4.788;2023-02-14T00:42:50;103425.84;;;4.24;97.15
47220;BME280;32961;51.936;4.788;2023-02-14T00:45:18;103429.53;;;4.20;97.12
47220;BME280;32961;51.936;4.788;2023-02-14T00:47:46;103421.56;;;4.17;97.26
47220;BME280;32961;51.936;4.788;2023-02-14T00:50:13;103418.94;;;4.14;96.88
47220;BME280;32961;51.936;4.788;2023-02-14T00:52:42;103414.53;;;4.11;96.86
47220;BME280;32961;51.936;4.788;2023-02-14T00:55:09;103411.84;;;4.11;97.20
47220;BME280;32961;51.936;4.788;2023-02-14T00:57:37;103414.53;;;4.11;97.14
47220;BME280;32961;51.936;4.788;2023-02-14T01:00:08;103411.88;;;4.10;97.29
47220;BME280;32961;51.936;4.788;2023-02-14T01:02:36;103411.03;;;4.08;97.04
47220;BME280;32961;51.936;4.788;2023-02-14T01:05:04;103414.72;;;4.04;96.90
47220;BME280;32961;51.936;4.788;2023-02-14T01:07:32;103414.78;;;4.00;97.09
47220;BME280;32961;51.936;4.788;2023-02-14T01:10:00;103413.94;;;3.98;97.13
47220;BME280;32961;51.936;4.788;2023-02-14T01:12:28;103412.19;;;3.97;97.50
47220;BME280;32961;51.936;4.788;2023-02-14T01:14:55;103409.50;;;3.97;97.79
47220;BME280;32961;51.936;4.788;2023-02-14T01:17:24;103402.34;;;3.96;97.65
47220;BME280;32961;51.936;4.788;2023-02-14T01:19:53;103413.16;;;3.93;97.62
47220;BME280;32961;51.936;4.788;2023-02-14T01:22:21;103406.03;;;3.92;98.18
47220;BME280;32961;51.936;4.788;2023-02-14T01:24:48;103402.47;;;3.92;98.19
47220;BME280;32961;51.936;4.788;2023-02-14T01:27:16;103398.00;;;3.91;98.18
47220;BME280;32961;51.936;4.788;2023-02-14T01:29:44;103395.34;;;3.89;98.21
47220;BME280;32961;51.936;4.788;2023-02-14T01:32:12;103399.00;;;3.87;98.06
47220;BME280;32961;51.936;4.788;2023-02-14T01:34:41;103393.63;;;3.85;98.45
47220;BME280;32961;51.936;4.788;2023-02-14T01:37:09;103394.53;;;3.85;98.60
47220;BME280;32961;51.936;4.788;2023-02-14T01:39:36;103386.47;;;3.85;98.72
47220;BME280;32961;51.936;4.788;2023-02-14T01:42:04;103390.06;;;3.84;98.54
47220;BME280;32961;51.936;4.788;2023-02-14T01:44:55;103391.91;;;3.84;98.92
47220;BME280;32961;51.936;4.788;2023-02-14T01:47:24;103393.69;;;3.83;98.64
47220;BME280;32961;51.936;4.788;2023-02-14T01:49:57;103395.56;;;3.81;99.02
47220;BME280;32961;51.936;4.788;2023-02-14T01:52:30;103397.38;;;3.79;98.76
47220;BME280;32961;51.936;4.788;2023-02-14T01:55:02;103392.06;;;3.76;98.36
47220;BME280;32961;51.936;4.788;2023-02-14T01:57:34;103397.59;;;3.72;98.38
47220;BME280;32961;51.936;4.788;2023-02-14T02:00:05;103393.19;;;3.67;98.45
47220;BME280;32961;51.936;4.788;2023-02-14T02:02:51;103396.91;;;3.62;98.33
47220;BME280;32961;51.936;4.788;2023-02-14T02:05:21;103405.00;;;3.60;98.45
47220;BME280;32961;51.936;4.788;2023-02-14T02:07:50;103407.72;;;3.59;98.27
47220;BME280;32961;51.936;4.788;2023-02-14T02:10:18;103409.56;;;3.57;98.12
47220;BME280;32961;51.936;4.788;2023-02-14T02:12:47;103397.06;;;3.54;98.22
47220;BME280;32961;51.936;4.788;2023-02-14T02:15:15;103405.22;;;3.51;97.90
47220;BME280;32961;51.936;4.788;2023-02-14T02:17:48;103399.09;;;3.46;97.59
47220;BME280;32961;51.936;4.788;2023-02-14T02:23:45;103392.91;;;3.41;97.84
47220;BME280;32961;51.936;4.788;2023-02-14T02:39:05;103395.69;;;3.37;99.05
47220;BME280;32961;51.936;4.788;2023-02-14T02:41:47;103390.31;;;3.37;99.30
47220;BME280;32961;51.936;4.788;2023-02-14T02:44:25;103391.16;;;3.38;99.63
47220;BME280;32961;51.936;4.788;2023-02-14T02:46:59;103383.06;;;3.40;100.00
47220;BME280;32961;51.936;4.788;2023-02-14T02:49:33;103383.06;;;3.40;100.00
47220;BME280;32961;51.936;4.788;2023-02-14T02:52:26;103382.25;;;3.37;100.00
47220;BME280;32961;51.936;4.788;2023-02-14T02:55:20;103383.09;;;3.38;100.00
47220;BME280;32961;51.936;4.788;2023-02-14T02:57:50;103381.31;;;3.39;100.00
47220;BME280;32961;51.936;4.788;2023-02-14T03:00:20;103375.94;;;3.39;100.00
47220;BME280;32961;51.936;4.788;2023-02-14T03:02:51;103370.59;;;3.37;100.00
47220;BME280;32961;51.936;4.788;2023-02-14T03:05:38;103377.78;;;3.36;100.00
47220;BME280;32961;51.936;4.788;2023-02-14T03:08:07;103381.38;;;3.35;100.00
47220;BME280;32961;51.936;4.788;2023-02-14T03:10:38;103376.97;;;3.33;100.00
47220;BME280;32961;51.936;4.788;2023-02-14T03:13:27;103373.47;;;3.29;100.00
47220;BME280;32961;51.936;4.788;2023-02-14T03:16:13;103375.28;;;3.27;100.00
47220;BME280;32961;51.936;4.788;2023-02-14T03:22:13;103374.50;;;3.22;100.00
47220;BME280;32961;51.936;4.788;2023-02-14T03:24:54;103374.59;;;3.19;100.00
47220;BME280;32961;51.936;4.788;2023-02-14T03:27:26;103380.03;;;3.16;100.00
47220;BME280;32961;51.936;4.788;2023-02-14T03:29:59;103379.16;;;3.15;100.00
47220;BME280;32961;51.936;4.788;2023-02-14T03:32:37;103380.06;;;3.14;100.00
47220;BME280;32961;51.936;4.788;2023-02-14T03:35:11;103371.09;;;3.14;100.00
47220;BME280;32961;51.936;4.788;2023-02-14T03:37:46;103373.78;;;3.14;100.00
47220;BME280;32961;51.936;4.788;2023-02-14T03:40:19;103374.72;;;3.13;100.00
47220;BME280;32961;51.936;4.788;2023-02-14T03:42:52;103362.22;;;3.12;100.00
47220;BME280;32961;51.936;4.788;2023-02-14T03:45:24;103363.09;;;3.12;100.00
47220;BME280;32961;51.936;4.788;2023-02-14T03:47:55;103367.59;;;3.12;100.00
47220;BME280;32961;51.936;4.788;2023-02-14T03:50:26;103360.44;;;3.11;100.00
47220;BME280;32961;51.936;4.788;2023-02-14T03:52:55;103364.03;;;3.10;100.00
47220;BME280;32961;51.936;4.788;2023-02-14T03:55:27;103370.31;;;3.09;100.00
47220;BME280;32961;51.936;4.788;2023-02-14T03:58:05;103371.25;;;3.08;100.00
47220;BME280;32961;51.936;4.788;2023-02-14T04:00:37;103376.59;;;3.09;100.00
47220;BME280;32961;51.936;4.788;2023-02-14T04:03:09;103373.97;;;3.06;100.00
47220;BME280;32961;51.936;4.788;2023-02-14T04:05:39;103368.63;;;3.04;100.00
47220;BME280;32961;51.936;4.788;2023-02-14T04:08:19;103370.47;;;3.02;100.00
47220;BME280;32961;51.936;4.788;2023-02-14T04:10:47;103372.28;;;3.00;100.00
47220;BME280;32961;51.936;4.788;2023-02-14T04:13:16;103371.41;;;3.00;100.00
47220;BME280;32961;51.936;4.788;2023-02-14T04:15:44;103367.88;;;2.98;100.00
47220;BME280;32961;51.936;4.788;2023-02-14T04:18:12;103370.59;;;2.96;100.00
47220;BME280;32961;51.936;4.788;2023-02-14T04:20:57;103364.34;;;2.96;100.00
47220;BME280;32961;51.936;4.788;2023-02-14T04:23:25;103368.81;;;2.95;100.00
47220;BME280;32961;51.936;4.788;2023-02-14T04:25:53;103365.31;;;2.92;100.00
47220;BME280;32961;51.936;4.788;2023-02-14T04:28:22;103369.00;;;2.87;100.00
47220;BME280;32961;51.936;4.788;2023-02-14T04:30:50;103369.94;;;2.85;100.00
47220;BME280;32961;51.936;4.788;2023-02-14T04:33:18;103372.69;;;2.82;100.00
47220;BME280;32961;51.936;4.788;2023-02-14T04:35:46;103372.69;;;2.82;100.00
47220;BME280;32961;51.936;4.788;2023-02-14T04:38:14;103374.53;;;2.80;100.00
47220;BME280;32961;51.936;4.788;2023-02-14T04:40:42;103370.94;;;2.79;100.00
47220;BME280;32961;51.936;4.788;2023-02-14T04:43:10;103375.41;;;2.80;100.00
47220;BME280;32961;51.936;4.788;2023-02-14T04:45:39;103374.53;;;2.80;100.00
47220;BME280;32961;51.936;4.788;2023-02-14T04:48:07;103364.66;;;2.80;100.00
47220;BME280;32961;51.936;4.788;2023-02-14T04:50:34;103370.91;;;2.81;100.00
47220;BME280;32961;51.936;4.788;2023-02-14T04:53:02;103355.75;;;2.80;100.00
47220;BME280;32961;51.936;4.788;2023-02-14T04:55:30;103357.53;;;2.79;100.00
47220;BME280;32961;51.936;4.788;2023-02-14T04:57:58;103362.97;;;2.76;100.00
47220;BME280;32961;51.936;4.788;2023-02-14T05:00:25;103354.00;;;2.76;100.00
47220;BME280;32961;51.936;4.788;2023-02-14T05:02:54;103360.28;;;2.75;100.00
47220;BME280;32961;51.936;4.788;2023-02-14T05:05:22;103361.25;;;2.73;100.00
47220;BME280;32961;51.936;4.788;2023-02-14T05:07:50;103348.72;;;2.72;100.00
47220;BME280;32961;51.936;4.788;2023-02-14T05:10:18;103349.63;;;2.71;100.00
47220;BME280;32961;51.936;4.788;2023-02-14T05:12:45;103351.50;;;2.68;100.00
47220;BME280;32961;51.936;4.788;2023-02-14T05:15:13;103351.47;;;2.69;100.00
47220;BME280;32961;51.936;4.788;2023-02-14T05:17:41;103357.72;;;2.68;100.00
47220;BME280;32961;51.936;4.788;2023-02-14T05:20:11;103356.00;;;2.67;100.00
47220;BME280;32961;51.936;4.788;2023-02-14T05:22:38;103361.38;;;2.66;100.00
47220;BME280;32961;51.936;4.788;2023-02-14T05:25:06;103352.50;;;2.62;100.00
47220;BME280;32961;51.936;4.788;2023-02-14T05:27:34;103357.94;;;2.59;100.00
47220;BME280;32961;51.936;4.788;2023-02-14T05:30:02;103360.66;;;2.56;100.00
47220;BME280;32961;51.936;4.788;2023-02-14T05:32:30;103367.88;;;2.54;100.00
47220;BME280;32961;51.936;4.788;2023-02-14T05:34:58;103372.41;;;2.52;100.00
47220;BME280;32961;51.936;4.788;2023-02-14T05:37:28;103369.78;;;2.47;100.00
47220;BME280;32961;51.936;4.788;2023-02-14T05:39:56;103367.19;;;2.44;100.00
47220;BME280;32961;51.936;4.788;2023-02-14T05:42:23;103369.91;;;2.41;100.00
47220;BME280;32961;51.936;4.788;2023-02-14T05:44:53;103363.69;;;2.39;100.00
47220;BME280;32961;51.936;4.788;2023-02-14T05:47:21;103364.66;;;2.35;100.00
47220;BME280;32961;51.936;4.788;2023-02-14T05:49:48;103365.59;;;2.32;100.00
47220;BME280;32961;51.936;4.788;2023-02-14T05:52:16;103365.69;;;2.28;100.00
47220;BME280;32961;51.936;4.788;2023-02-14T05:54:45;103362.13;;;2.25;100.00
47220;BME280;32961;51.936;4.788;2023-02-14T05:57:13;103364.00;;;2.23;100.00
47220;BME280;32961;51.936;4.788;2023-02-14T05:59:41;103362.25;;;2.21;100.00
47220;BME280;32961;51.936;4.788;2023-02-14T06:02:09;103356.88;;;2.19;100.00
47220;BME280;32961;51.936;4.788;2023-02-14T06:04:37;103354.25;;;2.18;100.00
47220;BME280;32961;51.936;4.788;2023-02-14T06:07:05;103356.97;;;2.16;100.00
47220;BME280;32961;51.936;4.788;2023-02-14T06:09:33;103364.13;;;2.14;100.00
47220;BME280;32961;51.936;4.788;2023-02-14T06:12:02;103365.94;;;2.14;100.00
47220;BME280;32961;51.936;4.788;2023-02-14T06:14:30;103357.06;;;2.10;100.00
47220;BME280;32961;51.936;4.788;2023-02-14T06:16:58;103365.94;;;2.12;100.00
47220;BME280;32961;51.936;4.788;2023-02-14T06:19:26;103365.13;;;2.10;100.00
47220;BME280;32961;51.936;4.788;2023-02-14T06:21:54;103366.03;;;2.09;100.00
47220;BME280;32961;51.936;4.788;2023-02-14T06:24:22;103364.25;;;2.08;100.00
47220;BME280;32961;51.936;4.788;2023-02-14T06:26:49;103365.19;;;2.05;100.00
47220;BME280;32961;51.936;4.788;2023-02-14T06:29:19;103359.06;;;1.99;100.00
47220;BME280;32961;51.936;4.788;2023-02-14T06:31:46;103362.66;;;1.98;100.00
47220;BME280;32961;51.936;4.788;2023-02-14T06:34:14;103361.78;;;1.96;100.00
47220;BME280;32961;51.936;4.788;2023-02-14T06:36:42;103360.00;;;1.95;100.00
47220;BME280;32961;51.936;4.788;2023-02-14T06:39:10;103360.03;;;1.93;100.00
47220;BME280;32961;51.936;4.788;2023-02-14T06:41:38;103363.66;;;1.90;100.00
47220;BME280;32961;51.936;4.788;2023-02-14T06:44:06;103358.34;;;1.89;100.00
47220;BME280;32961;51.936;4.788;2023-02-14T06:46:37;103354.78;;;1.87;100.00
47220;BME280;32961;51.936;4.788;2023-02-14T06:49:04;103358.38;;;1.86;100.00
47220;BME280;32961;51.936;4.788;2023-02-14T06:51:32;103361.97;;;1.85;100.00
47220;BME280;32961;51.936;4.788;2023-02-14T06:54:00;103360.19;;;1.84;100.00
47220;BME280;32961;51.936;4.788;2023-02-14T06:56:28;103356.69;;;1.82;100.00
47220;BME280;32961;51.936;4.788;2023-02-14T06:58:56;103354.94;;;1.77;100.00
47220;BME280;32961;51.936;4.788;2023-02-14T07:01:23;103356.78;;;1.74;100.00
47220;BME280;32961;51.936;4.788;2023-02-14T07:03:52;103358.63;;;1.70;100.00
47220;BME280;32961;51.936;4.788;2023-02-14T07:06:20;103361.38;;;1.67;100.00
47220;BME280;32961;51.936;4.788;2023-02-14T07:08:48;103363.19;;;1.65;100.00
47220;BME280;32961;51.936;4.788;2023-02-14T07:11:16;103352.53;;;1.62;100.00
47220;BME280;32961;51.936;4.788;2023-02-14T07:13:44;103360.56;;;1.62;100.00
47220;BME280;32961;51.936;4.788;2023-02-14T07:16:14;103360.59;;;1.59;100.00
47220;BME280;32961;51.936;4.788;2023-02-14T07:18:42;103359.66;;;1.62;100.00
47220;BME280;32961;51.936;4.788;2023-02-14T07:21:11;103361.44;;;1.63;100.00
47220;BME280;32961;51.936;4.788;2023-02-14T07:23:39;103361.44;;;1.63;100.00
47220;BME280;32961;51.936;4.788;2023-02-14T07:26:07;103360.53;;;1.64;100.00
47220;BME280;32961;51.936;4.788;2023-02-14T07:28:35;103366.75;;;1.66;100.00
47220;BME280;32961;51.936;4.788;2023-02-14T07:31:03;103361.41;;;1.66;100.00
47220;BME280;32961;51.936;4.788;2023-02-14T07:33:31;103372.09;;;1.67;100.00
47220;BME280;32961;51.936;4.788;2023-02-14T07:36:03;103368.50;;;1.67;100.00
47220;BME280;32961;51.936;4.788;2023-02-14T07:38:33;103370.28;;;1.68;100.00
47220;BME280;32961;51.936;4.788;2023-02-14T07:41:01;103369.41;;;1.67;100.00
47220;BME280;32961;51.936;4.788;2023-02-14T07:43:29;103363.16;;;1.67;100.00
47220;BME280;32961;51.936;4.788;2023-02-14T07:46:00;103363.16;;;1.68;100.00
47220;BME280;32961;51.936;4.788;2023-02-14T07:48:28;103376.47;;;1.71;100.00
47220;BME280;32961;51.936;4.788;2023-02-14T07:50:59;103370.22;;;1.72;100.00
47220;BME280;32961;51.936;4.788;2023-02-14T07:53:28;103371.09;;;1.74;100.00
47220;BME280;32961;51.936;4.788;2023-02-14T07:55:57;103374.59;;;1.76;100.00
47220;BME280;32961;51.936;4.788;2023-02-14T07:58:25;103370.97;;;1.81;100.00
47220;BME280;32961;51.936;4.788;2023-02-14T08:00:53;103373.63;;;1.82;100.00
47220;BME280;32961;51.936;4.788;2023-02-14T08:03:21;103374.47;;;1.86;100.00
47220;BME280;32961;51.936;4.788;2023-02-14T08:05:49;103379.78;;;1.89;100.00
47220;BME280;32961;51.936;4.788;2023-02-14T08:08:24;103379.72;;;1.92;100.00
47220;BME280;32961;51.936;4.788;2023-02-14T08:10:52;103381.44;;;1.96;100.00
47220;BME280;32961;51.936;4.788;2023-02-14T08:13:22;103379.59;;;2.01;100.00
47220;BME280;32961;51.936;4.788;2023-02-14T08:15:50;103380.41;;;2.05;100.00
47220;BME280;32961;51.936;4.788;2023-02-14T08:18:36;103384.84;;;2.07;100.00
47220;BME280;32961;51.936;4.788;2023-02-14T08:21:06;103385.63;;;2.13;100.00
47220;BME280;32961;51.936;4.788;2023-02-14T08:23:35;103386.44;;;2.18;100.00
47220;BME280;32961;51.936;4.788;2023-02-14T08:26:03;103377.41;;;2.22;100.00
47220;BME280;32961;51.936;4.788;2023-02-14T08:28:32;103372.91;;;2.24;100.00
47220;BME280;32961;51.936;4.788;2023-02-14T08:31:01;103384.38;;;2.32;100.00
47220;BME280;32961;51.936;4.788;2023-02-14T08:33:30;103374.44;;;2.37;100.00
47220;BME280;32961;51.936;4.788;2023-02-14T08:35:57;103379.69;;;2.44;100.00
47220;BME280;32961;51.936;4.788;2023-02-14T08:38:25;103383.16;;;2.49;100.00
47220;BME280;32961;51.936;4.788;2023-02-14T08:40:53;103372.31;;;2.56;100.00
47220;BME280;32961;51.936;4.788;2023-02-14T08:43:21;103376.59;;;2.65;100.00
47220;BME280;32961;51.936;4.788;2023-02-14T08:45:52;103368.38;;;2.73;100.00
47220;BME280;32961;51.936;4.788;2023-02-14T08:48:20;103365.53;;;2.81;100.00
47220;BME280;32961;51.936;4.788;2023-02-14T08:50:49;103363.59;;;2.89;100.00
47220;BME280;32961;51.936;4.788;2023-02-14T08:53:16;103362.50;;;2.98;100.00
47220;BME280;32961;51.936;4.788;2023-02-14T08:55:44;103362.34;;;3.05;100.00
47220;BME280;32961;51.936;4.788;2023-02-14T08:58:12;103362.13;;;3.15;100.00
47220;BME280;32961;51.936;4.788;2023-02-14T09:00:40;103366.41;;;3.25;100.00
47220;BME280;32961;51.936;4.788;2023-02-14T09:03:09;103362.56;;;3.35;100.00
47220;BME280;32961;51.936;4.788;2023-02-14T09:05:37;103357.91;;;3.44;100.00
47220;BME280;32961;51.936;4.788;2023-02-14T09:08:05;103355.84;;;3.55;100.00
47220;BME280;32961;51.936;4.788;2023-02-14T09:10:33;103354.75;;;3.62;100.00
47220;BME280;32961;51.936;4.788;2023-02-14T09:13:01;103357.25;;;3.72;100.00
47220;BME280;32961;51.936;4.788;2023-02-14T09:15:29;103355.28;;;3.78;100.00
47220;BME280;32961;51.936;4.788;2023-02-14T09:17:57;103352.31;;;3.89;100.00
47220;BME280;32961;51.936;4.788;2023-02-14T09:20:26;103352.06;;;3.98;100.00
47220;BME280;32961;51.936;4.788;2023-02-14T09:22:54;103342.88;;;4.07;100.00
47220;BME280;32961;51.936;4.788;2023-02-14T09:25:22;103349.78;;;4.17;100.00
47220;BME280;32961;51.936;4.788;2023-02-14T09:27:50;103344.19;;;4.25;100.00
47220;BME280;32961;51.936;4.788;2023-02-14T09:30:17;103344.78;;;4.37;100.00
47220;BME280;32961;51.936;4.788;2023-02-14T09:32:45;103349.03;;;4.44;100.00
47220;BME280;32961;51.936;4.788;2023-02-14T09:35:13;103349.66;;;4.54;100.00
47220;BME280;32961;51.936;4.788;2023-02-14T09:37:43;103353.84;;;4.65;100.00
47220;BME280;32961;51.936;4.788;2023-02-14T09:40:12;103349.97;;;4.76;100.00
47220;BME280;32961;51.936;4.788;2023-02-14T09:42:50;103347.03;;;4.84;100.00
47220;BME280;32961;51.936;4.788;2023-02-14T09:45:21;103339.63;;;4.92;100.00
47220;BME280;32961;51.936;4.788;2023-02-14T09:47:54;103345.59;;;5.02;100.00
47220;BME280;32961;51.936;4.788;2023-02-14T09:50:27;103347.06;;;5.12;100.00
47220;BME280;32961;51.936;4.788;2023-02-14T09:53:01;103345.84;;;5.22;100.00
47220;BME280;32961;51.936;4.788;2023-02-14T09:55:34;103343.00;;;5.28;100.00
47220;BME280;32961;51.936;4.788;2023-02-14T09:58:06;103348.94;;;5.38;100.00
47220;BME280;32961;51.936;4.788;2023-02-14T10:00:41;103344.09;;;5.50;100.00
47220;BME280;32961;51.936;4.788;2023-02-14T10:03:36;103346.41;;;5.62;100.00
47220;BME280;32961;51.936;4.788;2023-02-14T10:06:19;103346.03;;;5.73;100.00
47220;BME280;32961;51.936;4.788;2023-02-14T10:09:00;103347.53;;;5.82;100.00
47220;BME280;32961;51.936;4.788;2023-02-14T10:11:30;103347.28;;;5.89;100.00
47220;BME280;32961;51.936;4.788;2023-02-14T10:14:00;103349.59;;;6.02;100.00
47220;BME280;32961;51.936;4.788;2023-02-14T10:16:34;103343.88;;;6.11;100.00
47220;BME280;32961;51.936;4.788;2023-02-14T10:19:06;103344.38;;;6.22;100.00
47220;BME280;32961;51.936;4.788;2023-02-14T10:21:46;103341.22;;;6.35;100.00
47220;BME280;32961;51.936;4.788;2023-02-14T10:24:18;103339.97;;;6.45;100.00
47220;BME280;32961;51.936;4.788;2023-02-14T10:26:49;103344.03;;;6.57;100.00
47220;BME280;32961;51.936;4.788;2023-02-14T10:29:18;103342.75;;;6.67;100.00
47220;BME280;32961;51.936;4.788;2023-02-14T10:31:50;103345.09;;;6.77;100.00
47220;BME280;32961;51.936;4.788;2023-02-14T10:34:26;103340.22;;;6.86;100.00
47220;BME280;32961;51.936;4.788;2023-02-14T10:37:12;103337.03;;;6.99;100.00
47220;BME280;32961;51.936;4.788;2023-02-14T10:40:04;103339.25;;;7.11;100.00
47220;BME280;32961;51.936;4.788;2023-02-14T10:42:42;103333.31;;;7.25;100.00
47220;BME280;32961;51.936;4.788;2023-02-14T10:45:17;103321.25;;;7.34;100.00
47220;BME280;32961;51.936;4.788;2023-02-14T10:47:53;103316.41;;;7.42;100.00
47220;BME280;32961;51.936;4.788;2023-02-14T10:50:29;103327.66;;;7.53;100.00
47220;BME280;32961;51.936;4.788;2023-02-14T10:53:08;103318.16;;;7.65;100.00
47220;BME280;32961;51.936;4.788;2023-02-14T10:55:48;103327.53;;;7.79;99.93
47220;BME280;32961;51.936;4.788;2023-02-14T10:58:20;103325.16;;;7.92;99.39
47220;BME280;32961;51.936;4.788;2023-02-14T11:00:54;103318.41;;;8.02;98.63
47220;BME280;32961;51.936;4.788;2023-02-14T11:03:26;103317.13;;;8.11;97.85
47220;BME280;32961;51.936;4.788;2023-02-14T11:05:54;103311.22;;;8.22;97.23
47220;BME280;32961;51.936;4.788;2023-02-14T11:08:25;103309.78;;;8.33;97.14
47220;BME280;32961;51.936;4.788;2023-02-14T11:11:02;103311.91;;;8.47;96.00
47220;BME280;32961;51.936;4.788;2023-02-14T11:13:37;103307.06;;;8.54;93.58
47220;BME280;32961;51.936;4.788;2023-02-14T11:16:08;103298.66;;;8.60;93.17
47220;BME280;32961;51.936;4.788;2023-02-14T11:18:38;103302.84;;;8.67;92.75
47220;BME280;32961;51.936;4.788;2023-02-14T11:21:09;103300.59;;;8.77;91.66
47220;BME280;32961;51.936;4.788;2023-02-14T11:23:39;103302.91;;;8.85;91.32
47220;BME280;32961;51.936;4.788;2023-02-14T11:26:13;103297.94;;;8.95;90.47
47220;BME280;32961;51.936;4.788;2023-02-14T11:28:50;103301.16;;;9.03;90.01
47220;BME280;32961;51.936;4.788;2023-02-14T11:31:30;103287.00;;;9.15;89.73
47220;BME280;32961;51.936;4.788;2023-02-14T11:33:59;103285.63;;;9.26;88.74
47220;BME280;32961;51.936;4.788;2023-02-14T11:36:31;103282.44;;;9.35;88.71
47220;BME280;32961;51.936;4.788;2023-02-14T11:39:17;103280.94;;;9.47;87.97
47220;BME280;32961;51.936;4.788;2023-02-14T11:41:51;103279.59;;;9.56;87.38
47220;BME280;32961;51.936;4.788;2023-02-14T11:44:22;103277.38;;;9.64;85.67
47220;BME280;32961;51.936;4.788;2023-02-14T11:46:53;103279.69;;;9.72;86.13
47220;BME280;32961;51.936;4.788;2023-02-14T11:49:28;103267.47;;;9.80;85.69
47220;BME280;32961;51.936;4.788;2023-02-14T11:51:57;103262.63;;;9.87;85.16
47220;BME280;32961;51.936;4.788;2023-02-14T11:54:30;103253.97;;;9.96;84.66
47220;BME280;32961;51.936;4.788;2023-02-14T11:57:07;103252.59;;;10.05;84.03
47220;BME280;32961;51.936;4.788;2023-02-14T11:59:41;103247.53;;;10.15;83.68
47220;BME280;32961;51.936;4.788;2023-02-14T12:02:28;103243.47;;;10.24;82.63
47220;BME280;32961;51.936;4.788;2023-02-14T12:04:59;103237.69;;;10.30;82.37
47220;BME280;32961;51.936;4.788;2023-02-14T12:07:30;103233.72;;;10.37;82.16
47220;BME280;32961;51.936;4.788;2023-02-14T12:10:17;103227.84;;;10.45;81.50
47220;BME280;32961;51.936;4.788;2023-02-14T12:12:54;103227.50;;;10.51;81.10
47220;BME280;32961;51.936;4.788;2023-02-14T12:15:25;103226.44;;;10.54;80.93
47220;BME280;32961;51.936;4.788;2023-02-14T12:17:59;103231.44;;;10.62;81.18
47220;BME280;32961;51.936;4.788;2023-02-14T12:20:37;103226.47;;;10.70;80.70
47220;BME280;32961;51.936;4.788;2023-02-14T12:23:13;103221.53;;;10.76;80.35
47220;BME280;32961;51.936;4.788;2023-02-14T12:25:48;103212.25;;;10.81;80.47
47220;BME280;32961;51.936;4.788;2023-02-14T12:28:23;103209.28;;;10.85;79.70
47220;BME280;32961;51.936;4.788;2023-02-14T12:30:56;103201.72;;;10.90;79.63
47220;BME280;32961;51.936;4.788;2023-02-14T12:33:24;103204.09;;;10.97;79.30
47220;BME280;32961;51.936;4.788;2023-02-14T12:35:59;103200.31;;;10.99;78.82
47220;BME280;32961;51.936;4.788;2023-02-14T12:38:40;103199.25;;;11.02;78.33
47220;BME280;32961;51.936;4.788;2023-02-14T12:41:25;103208.97;;;11.06;78.04
47220;BME280;32961;51.936;4.788;2023-02-14T12:44:03;103194.16;;;11.12;77.82
47220;BME280;32961;51.936;4.788;2023-02-14T12:46:43;103193.00;;;11.16;77.79
47220;BME280;32961;51.936;4.788;2023-02-14T12:49:31;103181.94;;;11.19;77.39
47220;BME280;32961;51.936;4.788;2023-02-14T12:52:32;103171.75;;;11.22;77.09
47220;BME280;32961;51.936;4.788;2023-02-14T12:55:26;103176.13;;;11.25;76.49
47220;BME280;32961;51.936;4.788;2023-02-14T12:58:02;103174.09;;;11.29;76.76
47220;BME280;32961;51.936;4.788;2023-02-14T13:00:40;103175.50;;;11.36;76.56
47220;BME280;32961;51.936;4.788;2023-02-14T13:03:32;103174.25;;;11.42;76.08
47220;BME280;32961;51.936;4.788;2023-02-14T13:06:08;103171.06;;;11.49;76.14
47220;BME280;32961;51.936;4.788;2023-02-14T13:08:53;103157.34;;;11.51;75.10
47220;BME280;32961;51.936;4.788;2023-02-14T13:11:35;103159.19;;;11.50;74.89
47220;BME280;32961;51.936;4.788;2023-02-14T13:14:23;103160.16;;;11.49;74.35
47220;BME280;32961;51.936;4.788;2023-02-14T13:16:58;103152.84;;;11.50;73.95
47220;BME280;32961;51.936;4.788;2023-02-14T13:19:39;103149.97;;;11.53;74.23
47220;BME280;32961;51.936;4.788;2023-02-14T13:22:16;103152.69;;;11.53;73.45
47220;BME280;32961;51.936;4.788;2023-02-14T13:24:47;103147.25;;;11.53;72.81
47220;BME280;32961;51.936;4.788;2023-02-14T13:27:18;103140.84;;;11.54;72.54
47220;BME280;32961;51.936;4.788;2023-02-14T13:29:51;103131.78;;;11.53;72.38
47220;BME280;32961;51.936;4.788;2023-02-14T13:32:26;103131.66;;;11.55;72.51
47220;BME280;32961;51.936;4.788;2023-02-14T13:34:55;103138.09;;;11.54;72.09